Time;durP1;ratioP1;P1;durP2;ratioP2;P2;SDS_P1;SDS_P2;PMS_P1;PMS_P2;Temp;Humidity;BMP_temperature;BMP_pressure;BME280_temperature;BME280_humidity;BME280_pressure;Samples;Min_cycle;Max_cycle;Signal;HPM_P1;HPM_P2
2022/01/04 00:01:28;;;;;;;165.68;102.00;;;4.70;99.90;;;;;;5053839;28;20029;-78
2022/01/04 00:03:57;;;;;;;205.55;128.32;;;4.70;99.90;;;;;;5053814;28;20037;-78
2022/01/04 00:06:23;;;;;;;167.27;100.95;;;4.70;99.90;;;;;;5054118;28;20481;-76
2022/01/04 00:08:48;;;;;;;165.77;94.00;;;4.60;99.90;;;;;;5053413;28;20031;-76
2022/01/04 00:11:17;;;;;;;142.23;88.68;;;4.50;99.90;;;;;;5053885;28;20083;-76
2022/01/04 00:13:44;;;;;;;125.47;76.95;;;4.50;99.90;;;;;;5054039;28;20032;-76
2022/01/04 00:16:11;;;;;;;143.63;88.78;;;4.50;99.90;;;;;;5054079;28;20021;-76
2022/01/04 00:18:38;;;;;;;142.57;85.95;;;4.50;99.90;;;;;;5053998;28;20063;-76
2022/01/04 00:21:04;;;;;;;149.98;97.00;;;4.50;99.90;;;;;;5053755;28;20475;-77
2022/01/04 00:23:30;;;;;;;144.82;91.90;;;4.50;99.90;;;;;;5053469;28;20087;-76
2022/01/04 00:25:56;;;;;;;147.23;93.03;;;4.50;99.90;;;;;;5053837;28;20111;-77
2022/01/04 00:28:22;;;;;;;183.02;112.68;;;4.40;99.90;;;;;;5053728;28;20029;-78
2022/01/04 00:30:48;;;;;;;184.70;124.10;;;4.40;99.90;;;;;;5053726;28;20108;-77
2022/01/04 00:33:16;;;;;;;176.60;110.15;;;4.40;99.90;;;;;;5053589;28;20029;-78
2022/01/04 00:35:43;;;;;;;188.05;122.38;;;4.30;99.90;;;;;;5053794;28;20059;-78
2022/01/04 00:38:09;;;;;;;173.45;112.78;;;4.20;99.90;;;;;;5053561;28;20025;-78
2022/01/04 00:40:36;;;;;;;174.30;112.68;;;4.20;99.90;;;;;;5053375;28;20021;-78
2022/01/04 00:43:03;;;;;;;183.30;112.40;;;4.10;99.90;;;;;;5053258;28;20029;-77
2022/01/04 00:45:35;;;;;;;197.35;125.90;;;4.10;99.90;;;;;;5053293;28;20515;-76
2022/01/04 00:50:30;;;;;;;204.00;133.27;;;4.00;99.90;;;;;;5053473;28;20038;-76
2022/01/04 00:52:57;;;;;;;265.80;169.07;;;4.00;99.90;;;;;;5052952;28;20138;-72
2022/01/04 00:55:23;;;;;;;250.13;169.48;;;4.00;99.90;;;;;;5053119;28;20052;-72
2022/01/04 00:57:49;;;;;;;263.58;176.90;;;3.90;99.90;;;;;;5053029;28;20029;-72
2022/01/04 01:00:16;;;;;;;280.40;179.25;;;3.90;99.90;;;;;;5053002;28;20017;-75
2022/01/04 01:02:43;;;;;;;254.27;174.20;;;3.70;99.90;;;;;;5052729;28;20047;-71
2022/01/04 01:05:10;;;;;;;275.58;181.38;;;3.70;99.90;;;;;;5051785;28;20036;-71
2022/01/04 01:07:36;;;;;;;254.88;166.18;;;3.70;99.90;;;;;;5053172;28;20017;-71
2022/01/04 01:12:45;;;;;;;240.80;153.00;;;3.60;99.90;;;;;;5053088;28;20029;-72
2022/01/04 01:15:11;;;;;;;200.57;130.15;;;3.50;99.90;;;;;;5052815;28;20541;-72
2022/01/04 01:17:38;;;;;;;197.27;129.02;;;3.50;99.90;;;;;;5052875;28;20021;-72
2022/01/04 01:20:07;;;;;;;207.82;130.38;;;3.50;99.90;;;;;;5050518;28;20439;-77
2022/01/04 01:22:33;;;;;;;199.75;130.93;;;3.50;99.90;;;;;;5052504;28;20032;-77
2022/01/04 01:24:58;;;;;;;200.30;132.15;;;3.60;99.90;;;;;;5052229;28;20396;-71
2022/01/04 01:27:24;;;;;;;206.38;137.68;;;3.50;99.90;;;;;;5052447;28;20468;-77
2022/01/04 01:29:50;;;;;;;234.10;150.05;;;3.50;99.90;;;;;;5052617;28;20411;-78
2022/01/04 01:32:17;;;;;;;221.48;148.65;;;3.40;99.90;;;;;;5052645;28;20025;-77
2022/01/04 01:34:43;;;;;;;212.27;140.50;;;3.40;99.90;;;;;;5052595;28;20108;-73
2022/01/04 01:37:10;;;;;;;207.48;134.30;;;3.30;99.90;;;;;;5052663;28;20104;-72
2022/01/04 01:39:36;;;;;;;203.38;134.40;;;3.40;99.90;;;;;;5052183;28;20025;-73
2022/01/04 01:42:03;;;;;;;207.05;140.82;;;3.40;99.90;;;;;;5052070;28;20487;-76
2022/01/04 01:44:31;;;;;;;204.52;135.25;;;3.40;99.90;;;;;;5052215;28;20028;-72
2022/01/04 01:46:57;;;;;;;203.73;137.77;;;3.40;99.90;;;;;;5052564;28;20392;-72
2022/01/04 01:49:23;;;;;;;186.90;125.07;;;3.40;99.90;;;;;;5050756;28;20056;-73
2022/01/04 01:51:49;;;;;;;183.85;115.80;;;3.40;99.90;;;;;;5051570;28;20048;-78
2022/01/04 01:54:16;;;;;;;173.52;112.20;;;3.40;99.90;;;;;;5051976;28;20033;-73
2022/01/04 01:56:42;;;;;;;134.52;90.78;;;3.50;99.90;;;;;;5051976;28;20029;-77
2022/01/04 01:59:08;;;;;;;172.18;112.90;;;3.50;99.90;;;;;;5051971;28;20479;-77
2022/01/04 02:01:34;;;;;;;148.15;105.10;;;3.60;99.90;;;;;;5052016;28;20027;-77
2022/01/04 02:04:00;;;;;;;182.60;118.15;;;3.50;99.90;;;;;;5051897;28;20119;-73
2022/01/04 02:06:29;;;;;;;192.77;123.15;;;3.50;99.90;;;;;;5051978;28;20033;-76
2022/01/04 02:08:59;;;;;;;174.80;116.57;;;3.50;99.90;;;;;;5051976;28;20471;-73
2022/01/04 02:11:29;;;;;;;172.10;116.93;;;3.50;99.90;;;;;;5051882;28;20387;-77
2022/01/04 02:13:56;;;;;;;152.50;103.68;;;3.60;99.90;;;;;;5051690;28;20082;-76
2022/01/04 02:16:24;;;;;;;166.82;114.68;;;3.50;99.90;;;;;;5051784;28;20543;-75
2022/01/04 02:18:50;;;;;;;160.77;109.43;;;3.50;99.90;;;;;;5051904;28;20053;-76
2022/01/04 02:21:16;;;;;;;149.50;102.95;;;3.50;99.90;;;;;;5051660;28;20093;-76
2022/01/04 02:23:42;;;;;;;241.35;160.02;;;3.50;99.90;;;;;;5051324;28;20037;-76
2022/01/04 02:26:09;;;;;;;156.23;105.90;;;3.40;99.90;;;;;;5051439;28;20186;-76
2022/01/04 02:28:35;;;;;;;284.23;163.05;;;3.40;99.90;;;;;;5052019;28;20043;-76
2022/01/04 02:31:01;;;;;;;185.52;117.95;;;3.40;99.90;;;;;;5051380;28;20395;-76
2022/01/04 02:33:27;;;;;;;160.88;110.63;;;3.50;99.90;;;;;;5051474;28;20025;-76
2022/01/04 02:35:53;;;;;;;166.48;106.57;;;3.40;99.90;;;;;;5051582;28;20028;-76
2022/01/04 02:38:18;;;;;;;162.95;107.45;;;3.50;99.90;;;;;;5051638;28;20025;-76
2022/01/04 02:40:44;;;;;;;146.02;101.05;;;3.50;99.90;;;;;;5051451;28;20021;-76
2022/01/04 02:43:10;;;;;;;149.05;99.82;;;3.50;99.90;;;;;;5051252;28;20502;-75
2022/01/04 02:45:36;;;;;;;146.27;101.50;;;3.50;99.90;;;;;;5051494;28;20104;-76
2022/01/04 02:48:02;;;;;;;151.57;103.60;;;3.50;99.90;;;;;;5051541;28;20533;-76
2022/01/04 02:50:28;;;;;;;144.30;98.88;;;3.50;99.90;;;;;;5051624;28;20096;-77
2022/01/04 02:52:55;;;;;;;145.85;94.82;;;3.60;99.90;;;;;;5051229;28;20049;-77
2022/01/04 02:55:20;;;;;;;165.00;105.45;;;3.60;99.90;;;;;;5051386;28;20509;-77
2022/01/04 02:57:46;;;;;;;154.40;109.53;;;3.60;99.90;;;;;;5051253;28;20021;-77
2022/01/04 03:00:15;;;;;;;172.48;117.97;;;3.50;99.90;;;;;;5051388;28;20025;-77
2022/01/04 03:02:42;;;;;;;209.65;137.35;;;3.40;99.90;;;;;;5051484;28;20475;-76
2022/01/04 03:05:09;;;;;;;200.98;132.55;;;3.50;99.90;;;;;;5051145;28;20134;-72
2022/01/04 03:07:35;;;;;;;221.18;143.10;;;3.50;99.90;;;;;;5051038;28;20512;-79
2022/01/04 03:10:02;;;;;;;213.23;145.32;;;3.50;99.90;;;;;;5050728;28;20087;-78
2022/01/04 03:12:28;;;;;;;222.32;147.52;;;3.50;99.90;;;;;;5050749;28;20376;-78
2022/01/04 03:14:54;;;;;;;216.43;144.38;;;3.50;99.90;;;;;;5051108;28;20036;-78
2022/01/04 03:17:20;;;;;;;190.27;126.68;;;3.50;99.90;;;;;;5051150;28;20017;-78
2022/01/04 03:19:46;;;;;;;220.35;147.18;;;3.50;99.90;;;;;;5049713;28;20048;-78
2022/01/04 03:22:11;;;;;;;232.60;149.43;;;3.40;99.90;;;;;;5050966;28;20050;-78
2022/01/04 03:24:37;;;;;;;215.70;147.18;;;3.30;99.90;;;;;;5050865;28;20040;-77
2022/01/04 03:27:03;;;;;;;223.40;147.85;;;3.30;99.90;;;;;;5050548;28;20032;-77
2022/01/04 03:29:30;;;;;;;218.07;144.93;;;3.30;99.90;;;;;;5050320;28;20602;-77
2022/01/04 03:31:57;;;;;;;223.50;146.73;;;3.30;99.90;;;;;;5051126;28;20059;-78
2022/01/04 03:34:24;;;;;;;231.57;145.43;;;3.40;99.90;;;;;;5050967;28;20037;-76
2022/01/04 03:36:49;;;;;;;231.70;155.18;;;3.40;99.90;;;;;;5051133;28;20124;-77
2022/01/04 03:39:15;;;;;;;215.98;138.93;;;3.30;99.90;;;;;;5051123;28;20069;-78
2022/01/04 03:41:43;;;;;;;216.90;145.23;;;3.40;99.90;;;;;;5050747;28;20116;-78
2022/01/04 03:44:14;;;;;;;226.13;154.13;;;3.30;99.90;;;;;;5053038;28;20060;-78
2022/01/04 03:46:39;;;;;;;226.88;152.68;;;3.20;99.90;;;;;;5054610;28;20028;-78
2022/01/04 03:49:06;;;;;;;217.40;151.05;;;3.10;99.90;;;;;;5054335;28;20021;-78
2022/01/04 03:51:31;;;;;;;232.27;157.98;;;3.20;99.90;;;;;;5053962;28;20051;-78
2022/01/04 03:53:57;;;;;;;205.77;140.85;;;3.20;99.90;;;;;;5054287;28;20029;-78
2022/01/04 03:56:23;;;;;;;226.75;149.82;;;3.20;99.90;;;;;;5054160;28;20427;-77
2022/01/04 03:58:49;;;;;;;238.10;148.32;;;3.20;99.90;;;;;;5053945;28;20025;-78
2022/01/04 04:01:15;;;;;;;217.73;148.85;;;3.10;99.90;;;;;;5054211;28;20717;-79
2022/01/04 04:03:41;;;;;;;226.82;150.32;;;3.20;99.90;;;;;;5053660;28;20111;-78
2022/01/04 04:06:07;;;;;;;232.93;162.75;;;3.20;99.90;;;;;;5054111;28;20032;-78
2022/01/04 04:08:33;;;;;;;243.07;158.57;;;3.10;99.90;;;;;;5054046;28;20041;-78
2022/01/04 04:10:59;;;;;;;227.80;152.85;;;3.10;99.90;;;;;;5052004;28;20487;-78
2022/01/04 04:13:24;;;;;;;231.65;154.13;;;3.20;99.90;;;;;;5053843;28;20441;-78
2022/01/04 04:15:50;;;;;;;247.00;165.88;;;3.20;99.90;;;;;;5053868;28;20109;-78
2022/01/04 04:18:17;;;;;;;229.68;150.38;;;3.20;99.90;;;;;;5053816;28;20033;-78
2022/01/04 04:20:43;;;;;;;204.98;142.18;;;3.10;99.90;;;;;;5053648;28;20045;-77
2022/01/04 04:23:10;;;;;;;210.77;149.48;;;3.10;99.90;;;;;;5053464;28;20025;-78
2022/01/04 04:25:36;;;;;;;238.73;169.82;;;3.10;99.90;;;;;;5053200;28;20108;-78
2022/01/04 04:28:02;;;;;;;254.00;176.43;;;3.10;99.90;;;;;;5053574;28;20521;-78
2022/01/04 04:30:28;;;;;;;257.55;172.75;;;3.00;99.90;;;;;;5053344;28;20029;-78
2022/01/04 04:32:54;;;;;;;280.02;182.13;;;3.00;99.90;;;;;;5053440;28;20427;-78
2022/01/04 04:35:20;;;;;;;285.80;183.55;;;3.00;99.90;;;;;;5053111;28;20029;-78
2022/01/04 04:37:46;;;;;;;282.65;175.55;;;3.00;99.90;;;;;;5053549;28;20029;-79
2022/01/04 04:40:14;;;;;;;257.05;173.55;;;3.00;99.90;;;;;;5053428;28;20078;-76
2022/01/04 04:42:41;;;;;;;247.52;158.95;;;3.10;99.90;;;;;;5053123;28;20481;-78
2022/01/04 04:45:08;;;;;;;232.02;151.65;;;3.10;99.90;;;;;;5053386;28;20045;-78
2022/01/04 04:47:34;;;;;;;231.80;145.90;;;3.10;99.90;;;;;;5053116;28;20025;-78
2022/01/04 04:50:00;;;;;;;217.93;145.18;;;3.20;99.90;;;;;;5053406;28;20078;-78
2022/01/04 04:52:26;;;;;;;244.43;149.65;;;3.20;99.90;;;;;;5053083;28;20473;-77
2022/01/04 04:54:52;;;;;;;246.82;157.85;;;3.20;99.90;;;;;;5052724;28;20505;-78
2022/01/04 04:57:18;;;;;;;248.45;154.95;;;3.30;99.90;;;;;;5052491;28;20471;-78
2022/01/04 04:59:44;;;;;;;234.98;153.88;;;3.30;99.90;;;;;;5052950;28;20029;-78
2022/01/04 05:02:10;;;;;;;259.05;163.65;;;3.20;99.90;;;;;;5053024;28;20017;-77
2022/01/04 05:04:36;;;;;;;233.77;155.18;;;3.10;99.90;;;;;;5052906;28;20048;-78
2022/01/04 05:07:03;;;;;;;249.15;160.88;;;3.10;99.90;;;;;;5052967;28;20100;-77
2022/01/04 05:09:29;;;;;;;212.93;133.95;;;3.10;99.90;;;;;;5052389;28;20142;-78
2022/01/04 05:11:55;;;;;;;206.73;130.75;;;3.00;99.90;;;;;;5052276;28;20108;-78
2022/01/04 05:14:21;;;;;;;202.75;122.28;;;3.10;99.90;;;;;;5052923;28;20123;-78
2022/01/04 05:16:47;;;;;;;214.40;137.20;;;3.00;99.90;;;;;;5052631;28;20021;-78
2022/01/04 05:19:13;;;;;;;192.18;113.78;;;3.00;99.90;;;;;;5052771;28;20029;-77
2022/01/04 05:21:39;;;;;;;147.93;90.78;;;3.00;99.90;;;;;;5052485;28;20036;-79
2022/01/04 05:24:06;;;;;;;144.63;89.63;;;3.00;99.90;;;;;;5052203;28;20112;-79
2022/01/04 05:26:33;;;;;;;163.20;97.55;;;3.00;99.90;;;;;;5052186;28;20086;-78
2022/01/04 05:29:00;;;;;;;147.88;100.80;;;3.00;99.90;;;;;;5052159;28;20104;-78
2022/01/04 05:31:25;;;;;;;145.32;95.07;;;3.10;99.90;;;;;;5052396;28;20468;-78
2022/01/04 05:33:51;;;;;;;152.82;94.88;;;3.10;99.90;;;;;;5052432;28;20116;-79
2022/01/04 05:36:17;;;;;;;170.65;106.00;;;3.20;99.90;;;;;;5052416;28;20056;-79
2022/01/04 05:38:43;;;;;;;178.52;108.63;;;3.20;99.90;;;;;;5052167;28;20459;-80
2022/01/04 05:41:10;;;;;;;170.45;111.35;;;3.20;99.90;;;;;;5052210;28;20021;-79
2022/01/04 05:43:36;;;;;;;152.75;98.10;;;3.10;99.90;;;;;;5051942;28;20068;-79
2022/01/04 05:46:01;;;;;;;161.80;102.35;;;3.10;99.90;;;;;;5051797;28;20696;-79
2022/01/04 05:48:27;;;;;;;150.25;103.15;;;3.10;99.90;;;;;;5052090;28;20025;-80
2022/01/04 05:50:54;;;;;;;183.73;120.40;;;3.10;99.90;;;;;;5051686;28;20556;-80
2022/01/04 05:53:19;;;;;;;156.05;105.10;;;3.00;99.90;;;;;;5051452;28;20143;-80
2022/01/04 05:55:45;;;;;;;151.38;99.63;;;3.00;99.90;;;;;;5051189;28;20053;-80
2022/01/04 05:58:11;;;;;;;176.82;113.15;;;3.00;99.90;;;;;;5050466;28;20112;-79
2022/01/04 06:00:37;;;;;;;186.20;119.25;;;3.00;99.90;;;;;;5050568;28;20025;-79
2022/01/04 06:03:03;;;;;;;155.65;100.95;;;3.10;99.90;;;;;;5051010;28;20171;-80
2022/01/04 06:05:30;;;;;;;183.07;126.95;;;3.10;99.90;;;;;;5051152;28;20120;-80
2022/01/04 06:07:56;;;;;;;174.70;113.68;;;2.90;99.90;;;;;;5051103;28;20428;-79
2022/01/04 06:10:22;;;;;;;136.85;88.82;;;2.90;99.90;;;;;;5051671;28;20102;-80
2022/01/04 06:15:17;;;;;;;111.88;68.18;;;2.90;99.90;;;;;;5051382;28;20118;-79
2022/01/04 06:17:47;;;;;;;113.03;69.70;;;2.90;99.90;;;;;;5051479;28;20101;-80
2022/01/04 06:20:19;;;;;;;102.93;65.47;;;2.90;99.90;;;;;;5051299;28;20049;-80
2022/01/04 06:22:45;;;;;;;102.75;64.25;;;2.80;99.90;;;;;;5051555;28;20372;-79
2022/01/04 06:25:14;;;;;;;95.45;56.30;;;2.80;99.90;;;;;;5051650;28;20060;-79
2022/01/04 06:27:44;;;;;;;97.55;57.67;;;2.80;99.90;;;;;;5051513;28;20090;-79
2022/01/04 06:30:11;;;;;;;128.50;68.28;;;2.80;99.90;;;;;;5051225;28;20103;-79
2022/01/04 06:32:36;;;;;;;133.70;68.32;;;2.90;99.90;;;;;;5051408;28;20028;-80
2022/01/04 06:35:04;;;;;;;127.43;69.82;;;2.90;99.90;;;;;;5051376;28;20395;-79
2022/01/04 06:37:32;;;;;;;135.60;74.72;;;2.90;99.90;;;;;;5051166;28;20025;-78
2022/01/04 06:39:58;;;;;;;131.27;70.57;;;3.00;99.90;;;;;;5051200;28;20033;-78
2022/01/04 06:42:24;;;;;;;124.85;73.50;;;3.10;99.90;;;;;;5051474;28;20096;-78
2022/01/04 06:44:50;;;;;;;126.03;73.57;;;3.20;99.90;;;;;;5051446;28;20117;-79
2022/01/04 06:47:16;;;;;;;116.30;64.22;;;3.20;99.90;;;;;;5051732;28;20472;-78
2022/01/04 06:49:42;;;;;;;134.73;71.68;;;3.30;99.90;;;;;;5051539;28;20021;-79
2022/01/04 06:52:08;;;;;;;142.77;77.75;;;3.40;99.90;;;;;;5051149;28;20098;-79
2022/01/04 06:54:35;;;;;;;144.98;73.15;;;3.50;99.90;;;;;;5051216;28;20537;-77
2022/01/04 06:57:01;;;;;;;129.85;74.50;;;3.50;99.90;;;;;;5049859;28;20032;-79
2022/01/04 06:59:27;;;;;;;143.63;80.95;;;3.60;99.90;;;;;;5051424;28;20043;-78
2022/01/04 07:01:53;;;;;;;171.25;99.85;;;3.70;99.90;;;;;;5049928;28;20476;-79
2022/01/04 07:04:19;;;;;;;152.63;92.55;;;3.70;99.90;;;;;;5051229;28;20120;-79
2022/01/04 07:06:45;;;;;;;159.90;97.10;;;3.80;99.90;;;;;;5051258;28;20017;-79
2022/01/04 07:09:11;;;;;;;134.75;81.72;;;3.80;99.90;;;;;;5051927;28;20104;-79
2022/01/04 07:11:37;;;;;;;123.07;71.93;;;3.80;99.90;;;;;;5051317;28;20024;-78
2022/01/04 07:14:04;;;;;;;245.52;143.93;;;3.80;99.90;;;;;;5051211;28;20469;-79
2022/01/04 07:16:30;;;;;;;266.00;169.35;;;3.80;99.90;;;;;;5051319;28;20112;-78
2022/01/04 07:18:56;;;;;;;217.93;139.00;;;3.90;99.90;;;;;;5053061;28;20021;-79
2022/01/04 07:21:22;;;;;;;170.68;106.13;;;4.00;99.90;;;;;;5054975;28;20032;-79
2022/01/04 07:23:48;;;;;;;135.05;85.93;;;4.10;99.90;;;;;;5054895;28;20033;-79
2022/01/04 07:26:16;;;;;;;146.02;95.10;;;4.10;99.90;;;;;;5054755;28;20040;-79
2022/01/04 07:28:44;;;;;;;189.23;122.63;;;4.10;99.90;;;;;;5054751;28;20021;-78
2022/01/04 07:31:10;;;;;;;123.32;81.22;;;4.30;99.90;;;;;;5054719;28;20104;-79
2022/01/04 07:33:37;;;;;;;114.00;72.57;;;4.40;99.90;;;;;;5055181;28;20454;-79
2022/01/04 07:36:06;;;;;;;124.82;81.82;;;4.60;99.90;;;;;;5054787;28;20056;-79
2022/01/04 07:38:33;;;;;;;131.38;85.88;;;4.70;99.90;;;;;;5054151;28;20041;-79
2022/01/04 07:40:59;;;;;;;109.57;72.47;;;4.90;99.90;;;;;;5054385;28;20018;-79
2022/01/04 07:43:25;;;;;;;108.13;68.22;;;5.00;99.90;;;;;;5053894;28;20036;-78
2022/01/04 07:45:52;;;;;;;96.25;62.85;;;5.10;99.90;;;;;;5054358;28;20033;-79
2022/01/04 07:48:19;;;;;;;87.07;55.50;;;5.20;99.90;;;;;;5054873;28;20029;-79
2022/01/04 07:50:45;;;;;;;91.50;57.42;;;5.20;99.90;;;;;;5054426;28;20024;-79
2022/01/04 07:53:11;;;;;;;81.35;48.42;;;5.30;99.90;;;;;;5054374;28;20543;-79
2022/01/04 07:55:36;;;;;;;97.00;58.78;;;5.40;99.90;;;;;;5053820;28;20368;-79
2022/01/04 07:58:02;;;;;;;108.30;64.93;;;5.60;99.90;;;;;;5054164;28;20096;-77
2022/01/04 08:00:29;;;;;;;112.22;66.55;;;5.70;99.90;;;;;;5054209;28;20021;-78
2022/01/04 08:02:55;;;;;;;97.35;55.55;;;5.80;99.90;;;;;;5054096;28;20017;-79
2022/01/04 08:05:22;;;;;;;87.85;52.50;;;5.90;99.90;;;;;;5053447;28;20063;-78
2022/01/04 08:07:49;;;;;;;63.88;42.25;;;6.00;99.90;;;;;;5053631;28;20020;-78
2022/01/04 08:10:15;;;;;;;73.45;39.70;;;6.10;99.90;;;;;;5053529;28;20095;-78
2022/01/04 08:12:41;;;;;;;64.03;36.03;;;6.20;99.90;;;;;;5053481;28;20021;-77
2022/01/04 08:15:08;;;;;;;64.15;38.03;;;6.40;99.90;;;;;;5052995;28;20075;-78
2022/01/04 08:17:36;;;;;;;51.33;34.08;;;6.40;99.90;;;;;;5053573;28;20064;-79
2022/01/04 08:20:03;;;;;;;53.83;30.05;;;6.50;99.90;;;;;;5053555;28;20040;-78
2022/01/04 08:22:32;;;;;;;48.65;32.13;;;6.60;99.90;;;;;;5053852;28;20100;-80
2022/01/04 08:25:09;;;;;;;52.75;31.50;;;6.60;99.90;;;;;;5053187;28;20041;-78
2022/01/04 08:27:35;;;;;;;51.20;34.47;;;6.60;99.90;;;;;;5053494;28;20072;-79
2022/01/04 08:30:04;;;;;;;53.65;35.05;;;6.80;99.90;;;;;;5052955;28;20017;-79
2022/01/04 08:32:30;;;;;;;53.92;34.05;;;6.90;99.90;;;;;;5053396;28;20025;-79
2022/01/04 08:34:56;;;;;;;57.80;37.63;;;7.00;99.90;;;;;;5053499;28;20029;-78
2022/01/04 08:37:22;;;;;;;53.28;33.08;;;7.10;99.90;;;;;;5053521;28;20111;-79
2022/01/04 08:39:48;;;;;;;49.63;30.95;;;7.30;99.90;;;;;;5053268;28;20112;-79
2022/01/04 08:42:14;;;;;;;54.88;32.08;;;7.50;99.90;;;;;;5053738;28;20475;-79
2022/01/04 08:44:40;;;;;;;60.10;33.38;;;7.60;99.90;;;;;;5053174;28;20033;-79
2022/01/04 08:47:08;;;;;;;55.58;36.30;;;7.90;99.90;;;;;;5053485;28;20033;-79
2022/01/04 08:49:34;;;;;;;45.33;31.95;;;8.10;99.90;;;;;;5053478;28;20032;-79
2022/01/04 08:52:01;;;;;;;49.72;33.35;;;8.10;99.90;;;;;;5052923;28;20052;-80
2022/01/04 08:54:27;;;;;;;51.75;32.65;;;8.20;99.90;;;;;;5053100;28;20387;-79
2022/01/04 08:56:54;;;;;;;53.08;35.65;;;8.40;99.90;;;;;;5053199;28;20025;-78
2022/01/04 08:59:21;;;;;;;53.95;34.47;;;8.60;99.90;;;;;;5052909;28;20025;-79
2022/01/04 09:01:47;;;;;;;49.97;33.25;;;8.80;99.90;;;;;;5053166;28;20036;-78
2022/01/04 09:04:13;;;;;;;64.20;39.60;;;9.00;99.90;;;;;;5052945;28;20025;-79
2022/01/04 09:06:39;;;;;;;61.75;39.55;;;9.20;99.90;;;;;;5052615;28;20116;-79
2022/01/04 09:09:05;;;;;;;63.22;38.55;;;9.30;99.90;;;;;;5052533;28;20117;-79
2022/01/04 09:11:32;;;;;;;67.30;39.58;;;9.40;99.90;;;;;;5052757;28;20032;-79
2022/01/04 09:14:19;;;;;;;62.83;39.15;;;9.50;99.90;;;;;;5052563;28;20071;-79
2022/01/04 09:19:29;;;;;;;57.67;37.15;;;9.70;99.90;;;;;;5052441;28;20094;-79
2022/01/04 09:21:55;;;;;;;61.58;36.85;;;9.80;99.90;;;;;;5052505;28;20114;-79
2022/01/04 09:24:21;;;;;;;55.25;36.80;;;9.80;99.90;;;;;;5052605;28;20518;-79
2022/01/04 09:26:50;;;;;;;63.42;38.05;;;9.90;99.90;;;;;;5052610;28;20092;-79
2022/01/04 09:29:18;;;;;;;60.05;37.05;;;10.00;99.90;;;;;;5052108;28;20495;-76
2022/01/04 09:31:49;;;;;;;60.60;40.10;;;10.20;99.90;;;;;;5052264;28;20024;-76
2022/01/04 09:34:15;;;;;;;69.18;42.67;;;10.30;99.90;;;;;;5052742;28;20036;-78
2022/01/04 09:36:42;;;;;;;73.72;42.10;;;10.40;99.90;;;;;;5052295;28;20456;-73
2022/01/04 09:39:11;;;;;;;62.50;39.33;;;10.50;99.90;;;;;;5052390;28;20116;-78
2022/01/04 09:41:38;;;;;;;59.05;37.65;;;10.60;99.90;;;;;;5051605;28;20029;-79
2022/01/04 09:44:04;;;;;;;60.13;39.92;;;10.80;99.90;;;;;;5052325;28;20037;-78
2022/01/04 09:46:32;;;;;;;58.25;38.15;;;10.90;99.90;;;;;;5052009;28;20048;-71
2022/01/04 09:48:58;;;;;;;58.10;34.50;;;11.10;99.90;;;;;;5051647;28;20024;-71
2022/01/04 09:51:26;;;;;;;83.07;47.22;;;11.20;99.90;;;;;;5051742;28;20485;-78
2022/01/04 09:53:53;;;;;;;58.63;33.85;;;11.30;99.90;;;;;;5052414;28;20029;-72
2022/01/04 09:56:19;;;;;;;45.40;27.60;;;11.40;99.90;;;;;;5052398;28;20032;-77
2022/01/04 09:58:45;;;;;;;45.63;24.05;;;11.40;99.90;;;;;;5052210;28;20025;-78
2022/01/04 10:01:38;;;;;;;41.58;21.42;;;11.40;99.90;;;;;;5051639;28;20032;-71
2022/01/04 10:04:04;;;;;;;;;;;11.50;99.90;;;;;;5050548;28;20094;-79
2022/01/04 10:06:31;;;;;;;32.90;19.35;;;11.60;99.90;;;;;;5051778;28;20117;-78
2022/01/04 10:09:00;;;;;;;39.83;21.75;;;11.70;99.20;;;;;;5051691;28;20029;-72
2022/01/04 10:11:37;;;;;;;39.33;24.70;;;11.80;99.70;;;;;;5051535;28;20067;-75
2022/01/04 10:14:23;;;;;;;39.28;24.15;;;12.00;99.90;;;;;;5051047;28;20037;-78
2022/01/04 10:16:57;;;;;;;43.65;27.90;;;12.10;99.70;;;;;;5051082;28;20036;-78
2022/01/04 10:19:38;;;;;;;32.80;21.42;;;12.20;99.90;;;;;;5051327;28;20032;-79
2022/01/04 10:22:24;;;;;;;26.55;18.35;;;12.30;98.30;;;;;;5051576;28;20045;-78
2022/01/04 10:25:08;;;;;;;35.00;24.35;;;12.40;97.40;;;;;;5051291;28;20045;-76
2022/01/04 10:27:39;;;;;;;38.92;20.25;;;12.50;96.80;;;;;;5051367;28;20024;-79
2022/01/04 10:30:12;;;;;;;35.67;19.63;;;12.60;96.60;;;;;;5051316;28;20029;-76
2022/01/04 10:33:12;;;;;;;33.67;19.95;;;12.70;96.50;;;;;;5051831;28;20040;-78
2022/01/04 10:35:43;;;;;;;40.35;21.50;;;12.80;96.50;;;;;;5050088;28;20477;-77
2022/01/04 10:38:15;;;;;;;34.90;21.55;;;12.90;95.60;;;;;;5051183;28;20017;-76
2022/01/04 10:41:03;;;;;;;33.03;19.88;;;12.90;95.50;;;;;;5051678;28;20033;-76
2022/01/04 10:43:30;;;;;;;36.08;21.10;;;13.10;97.70;;;;;;5051265;28;20048;-77
2022/01/04 10:45:56;;;;;;;33.75;20.60;;;13.20;95.00;;;;;;5051400;28;20108;-76
2022/01/04 10:48:36;;;;;;;31.75;20.40;;;13.20;94.70;;;;;;5051574;28;20124;-77
2022/01/04 10:51:05;;;;;;;36.75;21.45;;;13.30;94.80;;;;;;5051787;28;20036;-76
2022/01/04 10:53:52;;;;;;;32.33;23.02;;;13.30;94.30;;;;;;5054399;28;20151;-75
2022/01/04 10:56:23;;;;;;;33.13;24.65;;;13.30;94.90;;;;;;5056057;28;20029;-75
2022/01/04 10:58:51;;;;;;;35.55;23.83;;;13.40;94.60;;;;;;5055467;28;20028;-70
2022/01/04 11:01:19;;;;;;;34.83;22.15;;;13.50;95.10;;;;;;5054930;28;20029;-79
2022/01/04 11:03:48;;;;;;;31.58;19.23;;;13.50;95.40;;;;;;5054874;28;20025;-74
2022/01/04 11:06:24;;;;;;;34.30;21.55;;;13.50;94.30;;;;;;5055220;28;20032;-76
2022/01/04 11:08:50;;;;;;;29.08;17.60;;;13.60;94.60;;;;;;5054891;28;20060;-76
2022/01/04 11:11:16;;;;;;;33.88;17.20;;;13.60;95.10;;;;;;5050568;28;20122;-75
2022/01/04 11:13:43;;;;;;;31.35;17.83;;;13.50;94.90;;;;;;5051385;28;20056;-76
2022/01/04 11:16:09;;;;;;;37.25;18.75;;;13.40;95.30;;;;;;5052497;28;20511;-75
2022/01/04 11:18:40;;;;;;;33.55;20.02;;;13.40;95.50;;;;;;5054304;28;20040;-75
2022/01/04 11:21:14;;;;;;;25.65;15.27;;;13.30;95.40;;;;;;5053495;28;20035;-76
2022/01/04 11:23:41;;;;;;;40.47;19.48;;;13.30;94.70;;;;;;5054863;28;20478;-76
2022/01/04 11:26:09;;;;;;;36.72;20.15;;;13.40;95.50;;;;;;5054131;28;20669;-73
2022/01/04 11:28:42;;;;;;;31.92;18.42;;;13.40;95.20;;;;;;5050172;28;20028;-75
2022/01/04 11:31:32;;;;;;;26.95;15.90;;;13.40;94.90;;;;;;5051938;28;20027;-76
2022/01/04 11:33:58;;;;;;;24.95;15.50;;;13.40;93.40;;;;;;5053260;28;20025;-74
2022/01/04 11:36:25;;;;;;;26.65;15.95;;;13.40;93.30;;;;;;5053561;28;20024;-76
2022/01/04 11:58:14;;;;;;;28.95;17.17;;;13.50;93.70;;;;;;4991900;28;20096;-76
2022/01/04 12:00:45;;;;;;;32.03;17.60;;;13.50;92.80;;;;;;4991850;28;20042;-76
2022/01/04 12:03:13;;;;;;;23.75;14.15;;;13.50;93.20;;;;;;4993603;28;20037;-77
2022/01/04 12:06:02;;;;;;;27.13;15.70;;;13.50;92.90;;;;;;4993352;28;20038;-75
2022/01/04 12:08:36;;;;;;;27.95;16.92;;;13.60;93.00;;;;;;4993687;28;20543;-76
2022/01/04 12:11:03;;;;;;;25.00;14.50;;;13.60;93.40;;;;;;4993819;28;20697;-72
2022/01/04 12:13:47;;;;;;;23.27;12.73;;;13.60;91.70;;;;;;4994242;28;20031;-76
2022/01/04 12:16:14;;;;;;;24.63;12.95;;;13.60;90.90;;;;;;4993628;28;20031;-76
2022/01/04 12:18:39;;;;;;;18.98;11.50;;;13.70;90.90;;;;;;4994154;28;20271;-76
2022/01/04 12:21:14;;;;;;;22.52;13.30;;;13.60;91.10;;;;;;4993813;28;20038;-74
2022/01/04 12:23:40;;;;;;;25.08;15.38;;;13.70;90.80;;;;;;4993238;28;20059;-77
2022/01/04 12:26:06;;;;;;;24.02;14.38;;;13.70;91.00;;;;;;5009024;28;20444;-75
2022/01/04 12:28:40;;;;;;;28.83;15.48;;;13.70;91.50;;;;;;4991549;28;20105;-76
2022/01/04 12:31:19;;;;;;;29.35;17.88;;;13.70;91.50;;;;;;4992590;28;20030;-75
2022/01/04 12:33:51;;;;;;;26.23;14.65;;;13.70;92.30;;;;;;4992830;28;20161;-76
2022/01/04 12:36:27;;;;;;;29.00;17.00;;;13.70;91.20;;;;;;4993152;28;20092;-75
2022/01/04 12:38:58;;;;;;;30.80;18.45;;;13.70;91.10;;;;;;4988979;28;20587;-75
2022/01/04 12:41:25;;;;;;;29.20;18.88;;;13.70;91.90;;;;;;4991559;28;20476;-76
2022/01/04 12:43:52;;;;;;;34.55;19.85;;;13.70;91.60;;;;;;4993033;28;20102;-77
2022/01/04 12:46:30;;;;;;;32.08;19.27;;;13.80;92.20;;;;;;4993345;28;20354;-76
2022/01/04 12:48:59;;;;;;;34.47;19.00;;;13.80;92.80;;;;;;4991320;28;20023;-75
2022/01/04 12:51:31;;;;;;;36.08;18.60;;;13.70;92.40;;;;;;4988986;28;20441;-76
2022/01/04 12:54:08;;;;;;;33.13;19.80;;;13.80;93.20;;;;;;4992879;28;20100;-76
2022/01/04 12:56:45;;;;;;;38.55;21.42;;;13.80;92.60;;;;;;5003325;28;20145;-77